sensor_id;sensor_type;location;lat;lon;timestamp;temperature;humidity
4052;DHT22;2040;50.924;11.604;2022-11-02T00:01:27;8.30;99.90
4052;DHT22;2040;50.924;11.604;2022-11-02T00:03:53;8.00;99.90
4052;DHT22;2040;50.924;11.604;2022-11-02T00:06:19;7.90;99.90
4052;DHT22;2040;50.924;11.604;2022-11-02T00:08:45;7.80;99.90
4052;DHT22;2040;50.924;11.604;2022-11-02T00:11:10;7.80;99.90
4052;DHT22;2040;50.924;11.604;2022-11-02T00:13:36;7.60;99.90
4052;DHT22;2040;50.924;11.604;2022-11-02T00:16:08;7.50;99.90
4052;DHT22;2040;50.924;11.604;2022-11-02T00:18:36;7.40;99.90
4052;DHT22;2040;50.924;11.604;2022-11-02T00:21:02;7.40;99.90
4052;DHT22;2040;50.924;11.604;2022-11-02T00:23:28;7.40;99.90
4052;DHT22;2040;50.924;11.604;2022-11-02T00:25:55;7.50;99.90
4052;DHT22;2040;50.924;11.604;2022-11-02T00:28:21;7.60;99.90
4052;DHT22;2040;50.924;11.604;2022-11-02T00:30:48;7.80;99.90
4052;DHT22;2040;50.924;11.604;2022-11-02T00:33:13;7.90;99.90
4052;DHT22;2040;50.924;11.604;2022-11-02T00:35:39;7.90;99.90
4052;DHT22;2040;50.924;11.604;2022-11-02T00:38:05;7.80;99.90
4052;DHT22;2040;50.924;11.604;2022-11-02T00:40:31;7.60;99.90
4052;DHT22;2040;50.924;11.604;2022-11-02T00:42:58;7.40;99.90
4052;DHT22;2040;50.924;11.604;2022-11-02T00:45:23;7.40;99.90
4052;DHT22;2040;50.924;11.604;2022-11-02T00:47:49;7.40;99.90
4052;DHT22;2040;50.924;11.604;2022-11-02T00:50:15;7.20;99.90
4052;DHT22;2040;50.924;11.604;2022-11-02T00:52:41;7.30;99.90
4052;DHT22;2040;50.924;11.604;2022-11-02T00:55:08;7.20;99.90
4052;DHT22;2040;50.924;11.604;2022-11-02T00:57:34;7.10;99.90
4052;DHT22;2040;50.924;11.604;2022-11-02T01:00:00;7.10;99.90
4052;DHT22;2040;50.924;11.604;2022-11-02T01:02:26;7.00;99.90
4052;DHT22;2040;50.924;11.604;2022-11-02T01:04:52;7.00;99.90
4052;DHT22;2040;50.924;11.604;2022-11-02T01:07:17;7.00;99.90
4052;DHT22;2040;50.924;11.604;2022-11-02T01:09:43;7.10;99.90
4052;DHT22;2040;50.924;11.604;2022-11-02T01:12:09;7.30;99.90
4052;DHT22;2040;50.924;11.604;2022-11-02T01:14:34;7.40;99.90
4052;DHT22;2040;50.924;11.604;2022-11-02T01:17:00;7.50;99.90
4052;DHT22;2040;50.924;11.604;2022-11-02T01:19:26;7.40;99.90
4052;DHT22;2040;50.924;11.604;2022-11-02T01:21:52;7.30;99.90
4052;DHT22;2040;50.924;11.604;2022-11-02T01:24:18;7.40;99.90
4052;DHT22;2040;50.924;11.604;2022-11-02T01:26:44;7.50;99.90
4052;DHT22;2040;50.924;11.604;2022-11-02T01:29:10;8.00;99.90
4052;DHT22;2040;50.924;11.604;2022-11-02T01:31:35;8.10;99.90
4052;DHT22;2040;50.924;11.604;2022-11-02T01:34:01;8.20;99.90
4052;DHT22;2040;50.924;11.604;2022-11-02T01:36:26;8.20;99.90
4052;DHT22;2040;50.924;11.604;2022-11-02T01:38:52;8.20;99.90
4052;DHT22;2040;50.924;11.604;2022-11-02T01:41:19;8.30;99.90
4052;DHT22;2040;50.924;11.604;2022-11-02T01:43:45;8.30;99.90
4052;DHT22;2040;50.924;11.604;2022-11-02T01:48:57;8.50;99.90
4052;DHT22;2040;50.924;11.604;2022-11-02T01:51:42;8.50;99.90
4052;DHT22;2040;50.924;11.604;2022-11-02T01:54:24;8.40;99.90
4052;DHT22;2040;50.924;11.604;2022-11-02T01:56:55;8.40;99.90
4052;DHT22;2040;50.924;11.604;2022-11-02T01:59:25;7.90;99.90
4052;DHT22;2040;50.924;11.604;2022-11-02T02:01:52;7.70;99.90
4052;DHT22;2040;50.924;11.604;2022-11-02T02:04:19;7.40;99.90
4052;DHT22;2040;50.924;11.604;2022-11-02T02:06:46;7.10;99.90
4052;DHT22;2040;50.924;11.604;2022-11-02T02:09:13;7.30;99.90
4052;DHT22;2040;50.924;11.604;2022-11-02T02:11:40;7.50;99.90
4052;DHT22;2040;50.924;11.604;2022-11-02T02:14:24;7.60;99.90
4052;DHT22;2040;50.924;11.604;2022-11-02T02:25:45;8.10;99.90
4052;DHT22;2040;50.924;11.604;2022-11-02T02:28:42;8.30;99.90
4052;DHT22;2040;50.924;11.604;2022-11-02T02:31:24;8.30;99.90
4052;DHT22;2040;50.924;11.604;2022-11-02T02:36:34;8.10;99.90
4052;DHT22;2040;50.924;11.604;2022-11-02T02:39:04;8.10;99.90
4052;DHT22;2040;50.924;11.604;2022-11-02T02:41:49;8.10;99.90
4052;DHT22;2040;50.924;11.604;2022-11-02T02:44:22;7.80;99.90
4052;DHT22;2040;50.924;11.604;2022-11-02T02:47:35;7.60;99.90
4052;DHT22;2040;50.924;11.604;2022-11-02T02:49:50;7.40;99.90
4052;DHT22;2040;50.924;11.604;2022-11-02T02:52:19;7.00;99.90
4052;DHT22;2040;50.924;11.604;2022-11-02T02:54:46;6.70;99.90
4052;DHT22;2040;50.924;11.604;2022-11-02T02:57:17;6.60;99.90
4052;DHT22;2040;50.924;11.604;2022-11-02T02:59:48;6.60;99.90
4052;DHT22;2040;50.924;11.604;2022-11-02T03:02:43;6.60;99.90
4052;DHT22;2040;50.924;11.604;2022-11-02T03:05:32;6.50;99.90
4052;DHT22;2040;50.924;11.604;2022-11-02T03:08:09;6.50;99.90
4052;DHT22;2040;50.924;11.604;2022-11-02T03:10:52;6.40;99.90
4052;DHT22;2040;50.924;11.604;2022-11-02T03:13:41;6.30;99.90
4052;DHT22;2040;50.924;11.604;2022-11-02T03:19:06;6.00;99.90
4052;DHT22;2040;50.924;11.604;2022-11-02T03:21:43;6.10;99.90
4052;DHT22;2040;50.924;11.604;2022-11-02T03:24:26;6.20;99.90
4052;DHT22;2040;50.924;11.604;2022-11-02T03:29:30;6.20;99.90
4052;DHT22;2040;50.924;11.604;2022-11-02T03:32:10;6.10;99.90
4052;DHT22;2040;50.924;11.604;2022-11-02T03:34:44;6.30;99.90
4052;DHT22;2040;50.924;11.604;2022-11-02T03:37:24;6.50;99.90
4052;DHT22;2040;50.924;11.604;2022-11-02T03:39:56;6.50;99.90
4052;DHT22;2040;50.924;11.604;2022-11-02T03:42:25;6.30;99.90
4052;DHT22;2040;50.924;11.604;2022-11-02T03:45:00;6.40;99.90
4052;DHT22;2040;50.924;11.604;2022-11-02T03:47:29;6.80;99.90
4052;DHT22;2040;50.924;11.604;2022-11-02T03:49:58;6.60;99.90
4052;DHT22;2040;50.924;11.604;2022-11-02T03:52:28;6.60;99.90
4052;DHT22;2040;50.924;11.604;2022-11-02T03:55:07;6.50;99.90
4052;DHT22;2040;50.924;11.604;2022-11-02T03:57:40;6.40;99.90
4052;DHT22;2040;50.924;11.604;2022-11-02T04:00:12;6.40;99.90
4052;DHT22;2040;50.924;11.604;2022-11-02T04:02:41;6.30;99.90
4052;DHT22;2040;50.924;11.604;2022-11-02T04:05:09;6.30;99.90
4052;DHT22;2040;50.924;11.604;2022-11-02T04:07:36;6.50;99.90
4052;DHT22;2040;50.924;11.604;2022-11-02T04:10:21;6.70;99.90
4052;DHT22;2040;50.924;11.604;2022-11-02T04:12:46;6.90;99.90
4052;DHT22;2040;50.924;11.604;2022-11-02T04:15:30;6.90;99.90
4052;DHT22;2040;50.924;11.604;2022-11-02T04:17:56;6.60;99.90
4052;DHT22;2040;50.924;11.604;2022-11-02T04:20:40;6.50;99.90
4052;DHT22;2040;50.924;11.604;2022-11-02T04:23:06;6.50;99.90
4052;DHT22;2040;50.924;11.604;2022-11-02T04:25:53;6.40;99.90
4052;DHT22;2040;50.924;11.604;2022-11-02T04:28:19;6.50;99.90
4052;DHT22;2040;50.924;11.604;2022-11-02T04:30:45;6.40;99.90
4052;DHT22;2040;50.924;11.604;2022-11-02T04:33:11;6.40;99.90
4052;DHT22;2040;50.924;11.604;2022-11-02T04:35:58;6.40;99.90
4052;DHT22;2040;50.924;11.604;2022-11-02T04:38:24;6.60;99.90
4052;DHT22;2040;50.924;11.604;2022-11-02T04:41:13;6.80;99.90
4052;DHT22;2040;50.924;11.604;2022-11-02T04:43:58;6.70;99.90
4052;DHT22;2040;50.924;11.604;2022-11-02T04:46:26;7.00;99.90
4052;DHT22;2040;50.924;11.604;2022-11-02T04:48:52;7.30;99.90
4052;DHT22;2040;50.924;11.604;2022-11-02T04:51:18;7.40;99.90
4052;DHT22;2040;50.924;11.604;2022-11-02T04:53:46;7.30;99.90
4052;DHT22;2040;50.924;11.604;2022-11-02T04:56:11;7.40;99.90
4052;DHT22;2040;50.924;11.604;2022-11-02T04:58:37;7.30;99.90
4052;DHT22;2040;50.924;11.604;2022-11-02T05:01:13;7.30;99.90
4052;DHT22;2040;50.924;11.604;2022-11-02T05:03:40;7.10;99.90
4052;DHT22;2040;50.924;11.604;2022-11-02T05:06:05;7.00;99.90
4052;DHT22;2040;50.924;11.604;2022-11-02T05:08:31;7.30;99.90
4052;DHT22;2040;50.924;11.604;2022-11-02T05:10:57;7.30;99.90
4052;DHT22;2040;50.924;11.604;2022-11-02T05:13:24;7.80;99.90
4052;DHT22;2040;50.924;11.604;2022-11-02T05:15:51;7.70;99.90
4052;DHT22;2040;50.924;11.604;2022-11-02T05:18:16;7.90;99.90
4052;DHT22;2040;50.924;11.604;2022-11-02T05:20:42;7.90;99.90
4052;DHT22;2040;50.924;11.604;2022-11-02T05:23:13;8.00;99.90
4052;DHT22;2040;50.924;11.604;2022-11-02T05:25:39;8.10;99.90
4052;DHT22;2040;50.924;11.604;2022-11-02T05:28:04;8.20;99.90
4052;DHT22;2040;50.924;11.604;2022-11-02T05:30:30;8.20;99.90
4052;DHT22;2040;50.924;11.604;2022-11-02T05:32:56;8.40;99.90
4052;DHT22;2040;50.924;11.604;2022-11-02T05:35:22;8.50;99.90
4052;DHT22;2040;50.924;11.604;2022-11-02T05:37:47;8.60;99.90
4052;DHT22;2040;50.924;11.604;2022-11-02T05:40:13;8.70;99.90
4052;DHT22;2040;50.924;11.604;2022-11-02T05:42:39;8.80;99.90
4052;DHT22;2040;50.924;11.604;2022-11-02T05:45:05;8.90;99.90
4052;DHT22;2040;50.924;11.604;2022-11-02T05:47:30;8.80;99.90
4052;DHT22;2040;50.924;11.604;2022-11-02T05:49:57;8.80;99.90
4052;DHT22;2040;50.924;11.604;2022-11-02T05:52:23;8.90;99.90
4052;DHT22;2040;50.924;11.604;2022-11-02T05:54:48;8.80;99.90
4052;DHT22;2040;50.924;11.604;2022-11-02T05:57:14;8.70;99.90
4052;DHT22;2040;50.924;11.604;2022-11-02T05:59:41;8.70;99.90
4052;DHT22;2040;50.924;11.604;2022-11-02T06:02:07;8.70;99.90
4052;DHT22;2040;50.924;11.604;2022-11-02T06:04:32;8.70;99.90
4052;DHT22;2040;50.924;11.604;2022-11-02T06:06:58;8.70;99.90
4052;DHT22;2040;50.924;11.604;2022-11-02T06:09:23;8.70;99.90
4052;DHT22;2040;50.924;11.604;2022-11-02T06:11:49;8.70;99.90
4052;DHT22;2040;50.924;11.604;2022-11-02T06:14:14;8.70;99.90
4052;DHT22;2040;50.924;11.604;2022-11-02T06:16:40;8.80;99.90
4052;DHT22;2040;50.924;11.604;2022-11-02T06:19:05;8.80;99.90
4052;DHT22;2040;50.924;11.604;2022-11-02T06:21:31;8.90;99.90
4052;DHT22;2040;50.924;11.604;2022-11-02T06:23:57;8.90;99.90
4052;DHT22;2040;50.924;11.604;2022-11-02T06:26:23;8.80;99.90
4052;DHT22;2040;50.924;11.604;2022-11-02T06:28:49;8.80;99.90
4052;DHT22;2040;50.924;11.604;2022-11-02T06:31:14;8.70;99.90
4052;DHT22;2040;50.924;11.604;2022-11-02T06:33:42;8.80;99.90
4052;DHT22;2040;50.924;11.604;2022-11-02T06:36:09;8.90;99.90
4052;DHT22;2040;50.924;11.604;2022-11-02T06:38:34;8.90;99.90
4052;DHT22;2040;50.924;11.604;2022-11-02T06:41:02;8.80;99.90
4052;DHT22;2040;50.924;11.604;2022-11-02T06:43:30;8.80;99.90
4052;DHT22;2040;50.924;11.604;2022-11-02T06:45:56;8.80;99.90
4052;DHT22;2040;50.924;11.604;2022-11-02T06:48:23;9.00;99.90
4052;DHT22;2040;50.924;11.604;2022-11-02T06:50:49;9.00;99.90
4052;DHT22;2040;50.924;11.604;2022-11-02T06:53:15;9.20;99.90
4052;DHT22;2040;50.924;11.604;2022-11-02T06:55:41;9.20;99.90
4052;DHT22;2040;50.924;11.604;2022-11-02T06:58:07;9.20;99.90
4052;DHT22;2040;50.924;11.604;2022-11-02T07:00:33;9.20;99.90
4052;DHT22;2040;50.924;11.604;2022-11-02T07:03:08;9.30;99.90
4052;DHT22;2040;50.924;11.604;2022-11-02T07:05:35;9.40;99.90
4052;DHT22;2040;50.924;11.604;2022-11-02T07:08:00;9.40;99.90
4052;DHT22;2040;50.924;11.604;2022-11-02T07:10:26;9.50;99.90
4052;DHT22;2040;50.924;11.604;2022-11-02T07:12:54;9.60;99.90
4052;DHT22;2040;50.924;11.604;2022-11-02T07:15:21;9.60;99.90
4052;DHT22;2040;50.924;11.604;2022-11-02T07:17:47;9.70;99.90
4052;DHT22;2040;50.924;11.604;2022-11-02T07:20:13;9.70;99.90
4052;DHT22;2040;50.924;11.604;2022-11-02T07:22:39;9.80;99.90
4052;DHT22;2040;50.924;11.604;2022-11-02T07:25:05;9.90;99.90
4052;DHT22;2040;50.924;11.604;2022-11-02T07:27:36;9.90;99.90
4052;DHT22;2040;50.924;11.604;2022-11-02T07:30:02;10.00;99.90
4052;DHT22;2040;50.924;11.604;2022-11-02T07:32:28;10.00;99.90
4052;DHT22;2040;50.924;11.604;2022-11-02T07:34:53;10.10;99.90
4052;DHT22;2040;50.924;11.604;2022-11-02T07:37:19;10.10;99.90
4052;DHT22;2040;50.924;11.604;2022-11-02T07:39:45;10.10;99.90
4052;DHT22;2040;50.924;11.604;2022-11-02T07:42:10;10.20;99.90
4052;DHT22;2040;50.924;11.604;2022-11-02T07:44:36;10.40;99.90
4052;DHT22;2040;50.924;11.604;2022-11-02T07:47:01;10.60;99.90
4052;DHT22;2040;50.924;11.604;2022-11-02T07:49:27;10.80;99.90
4052;DHT22;2040;50.924;11.604;2022-11-02T07:51:55;10.80;99.90
4052;DHT22;2040;50.924;11.604;2022-11-02T07:54:20;10.80;99.90
4052;DHT22;2040;50.924;11.604;2022-11-02T07:56:46;10.90;99.90
4052;DHT22;2040;50.924;11.604;2022-11-02T07:59:12;10.90;99.90
4052;DHT22;2040;50.924;11.604;2022-11-02T08:01:38;10.80;99.90
4052;DHT22;2040;50.924;11.604;2022-11-02T08:04:03;10.70;99.90
4052;DHT22;2040;50.924;11.604;2022-11-02T08:06:29;10.60;99.90
4052;DHT22;2040;50.924;11.604;2022-11-02T08:08:55;10.60;99.90
4052;DHT22;2040;50.924;11.604;2022-11-02T08:11:21;10.70;99.90
4052;DHT22;2040;50.924;11.604;2022-11-02T08:13:46;10.70;99.90
4052;DHT22;2040;50.924;11.604;2022-11-02T08:16:12;10.80;99.90
4052;DHT22;2040;50.924;11.604;2022-11-02T08:18:37;10.90;99.90
4052;DHT22;2040;50.924;11.604;2022-11-02T08:21:03;11.00;99.90
4052;DHT22;2040;50.924;11.604;2022-11-02T08:23:29;11.00;99.90
4052;DHT22;2040;50.924;11.604;2022-11-02T08:25:57;11.10;99.90
4052;DHT22;2040;50.924;11.604;2022-11-02T08:28:26;11.20;99.90
4052;DHT22;2040;50.924;11.604;2022-11-02T08:30:52;11.20;99.90
4052;DHT22;2040;50.924;11.604;2022-11-02T08:33:18;11.30;99.90
4052;DHT22;2040;50.924;11.604;2022-11-02T08:35:45;11.30;99.90
4052;DHT22;2040;50.924;11.604;2022-11-02T08:38:12;11.40;99.90
4052;DHT22;2040;50.924;11.604;2022-11-02T08:40:38;11.50;99.90
4052;DHT22;2040;50.924;11.604;2022-11-02T08:43:09;11.60;99.90
4052;DHT22;2040;50.924;11.604;2022-11-02T08:45:36;11.60;99.90
4052;DHT22;2040;50.924;11.604;2022-11-02T08:48:03;11.60;99.90
4052;DHT22;2040;50.924;11.604;2022-11-02T08:50:30;11.80;99.90
4052;DHT22;2040;50.924;11.604;2022-11-02T08:52:55;11.80;99.90
4052;DHT22;2040;50.924;11.604;2022-11-02T08:55:21;11.90;99.90
4052;DHT22;2040;50.924;11.604;2022-11-02T08:57:48;11.90;99.90
4052;DHT22;2040;50.924;11.604;2022-11-02T09:00:15;12.00;99.90
4052;DHT22;2040;50.924;11.604;2022-11-02T09:02:42;12.10;99.90
4052;DHT22;2040;50.924;11.604;2022-11-02T09:05:08;12.20;99.90
4052;DHT22;2040;50.924;11.604;2022-11-02T09:07:34;12.30;99.90
4052;DHT22;2040;50.924;11.604;2022-11-02T09:10:02;12.40;99.90
4052;DHT22;2040;50.924;11.604;2022-11-02T09:12:28;12.40;99.90
4052;DHT22;2040;50.924;11.604;2022-11-02T09:14:54;12.50;99.90
4052;DHT22;2040;50.924;11.604;2022-11-02T09:17:19;12.50;99.90
4052;DHT22;2040;50.924;11.604;2022-11-02T09:19:45;12.60;99.90
4052;DHT22;2040;50.924;11.604;2022-11-02T09:22:10;12.70;99.90
4052;DHT22;2040;50.924;11.604;2022-11-02T09:24:36;12.60;99.90
4052;DHT22;2040;50.924;11.604;2022-11-02T09:27:01;12.70;99.90
4052;DHT22;2040;50.924;11.604;2022-11-02T09:29:27;12.80;99.90
4052;DHT22;2040;50.924;11.604;2022-11-02T09:31:53;12.90;99.90
4052;DHT22;2040;50.924;11.604;2022-11-02T09:34:18;13.00;99.90
4052;DHT22;2040;50.924;11.604;2022-11-02T09:36:44;13.20;99.90
4052;DHT22;2040;50.924;11.604;2022-11-02T09:39:10;13.30;99.90
4052;DHT22;2040;50.924;11.604;2022-11-02T09:41:40;13.40;99.90
4052;DHT22;2040;50.924;11.604;2022-11-02T09:44:15;13.50;99.90
4052;DHT22;2040;50.924;11.604;2022-11-02T09:46:45;13.60;99.90
4052;DHT22;2040;50.924;11.604;2022-11-02T09:49:20;13.70;99.90
4052;DHT22;2040;50.924;11.604;2022-11-02T09:51:50;13.80;99.90
4052;DHT22;2040;50.924;11.604;2022-11-02T09:54:31;13.70;99.90
4052;DHT22;2040;50.924;11.604;2022-11-02T09:57:18;13.50;99.90
4052;DHT22;2040;50.924;11.604;2022-11-02T09:59:44;13.30;99.90
4052;DHT22;2040;50.924;11.604;2022-11-02T10:10:33;13.20;99.90
4052;DHT22;2040;50.924;11.604;2022-11-02T10:13:27;13.20;99.90
4052;DHT22;2040;50.924;11.604;2022-11-02T10:16:14;13.40;99.90
4052;DHT22;2040;50.924;11.604;2022-11-02T10:18:42;13.50;99.90
4052;DHT22;2040;50.924;11.604;2022-11-02T10:21:18;13.70;99.90
4052;DHT22;2040;50.924;11.604;2022-11-02T10:23:52;13.60;99.90
4052;DHT22;2040;50.924;11.604;2022-11-02T10:26:26;13.70;99.90
4052;DHT22;2040;50.924;11.604;2022-11-02T10:29:02;13.90;99.90
4052;DHT22;2040;50.924;11.604;2022-11-02T10:31:34;13.90;99.90
4052;DHT22;2040;50.924;11.604;2022-11-02T10:37:08;13.50;99.90
4052;DHT22;2040;50.924;11.604;2022-11-02T10:42:47;13.00;99.90
4052;DHT22;2040;50.924;11.604;2022-11-02T10:51:04;13.20;99.90
4052;DHT22;2040;50.924;11.604;2022-11-02T10:53:38;13.20;99.90
4052;DHT22;2040;50.924;11.604;2022-11-02T10:56:15;13.20;99.90
4052;DHT22;2040;50.924;11.604;2022-11-02T10:58:54;13.20;99.90
4052;DHT22;2040;50.924;11.604;2022-11-02T11:01:24;13.30;99.90
4052;DHT22;2040;50.924;11.604;2022-11-02T11:06:33;14.00;99.90
4052;DHT22;2040;50.924;11.604;2022-11-02T11:09:06;14.40;99.90
4052;DHT22;2040;50.924;11.604;2022-11-02T11:11:37;14.70;99.90
4052;DHT22;2040;50.924;11.604;2022-11-02T11:16:36;15.00;99.90
4052;DHT22;2040;50.924;11.604;2022-11-02T11:22:03;15.50;99.90
4052;DHT22;2040;50.924;11.604;2022-11-02T11:24:45;15.20;99.90
4052;DHT22;2040;50.924;11.604;2022-11-02T11:29:51;15.60;99.90
4052;DHT22;2040;50.924;11.604;2022-11-02T11:32:25;15.60;99.90
4052;DHT22;2040;50.924;11.604;2022-11-02T11:35:01;15.30;99.90
4052;DHT22;2040;50.924;11.604;2022-11-02T11:37:27;15.20;99.90
4052;DHT22;2040;50.924;11.604;2022-11-02T11:39:57;15.30;99.90
4052;DHT22;2040;50.924;11.604;2022-11-02T11:42:26;14.90;99.90
4052;DHT22;2040;50.924;11.604;2022-11-02T11:45:38;14.60;99.90
4052;DHT22;2040;50.924;11.604;2022-11-02T11:47:44;14.20;99.90
4052;DHT22;2040;50.924;11.604;2022-11-02T11:50:15;13.80;99.90
4052;DHT22;2040;50.924;11.604;2022-11-02T11:52:41;13.80;99.90
4052;DHT22;2040;50.924;11.604;2022-11-02T11:55:26;13.60;99.90
4052;DHT22;2040;50.924;11.604;2022-11-02T11:58:17;13.60;99.90
4052;DHT22;2040;50.924;11.604;2022-11-02T12:00:44;13.60;99.90
4052;DHT22;2040;50.924;11.604;2022-11-02T12:03:12;13.60;99.90
4052;DHT22;2040;50.924;11.604;2022-11-02T12:11:05;13.60;99.90
4052;DHT22;2040;50.924;11.604;2022-11-02T12:13:41;13.60;99.90
4052;DHT22;2040;50.924;11.604;2022-11-02T12:16:17;13.70;99.90
4052;DHT22;2040;50.924;11.604;2022-11-02T12:19:08;13.80;99.90
4052;DHT22;2040;50.924;11.604;2022-11-02T12:24:46;13.90;99.90
4052;DHT22;2040;50.924;11.604;2022-11-02T12:30:08;14.40;99.90
4052;DHT22;2040;50.924;11.604;2022-11-02T12:37:51;14.80;99.90
4052;DHT22;2040;50.924;11.604;2022-11-02T12:40:38;14.60;99.90
4052;DHT22;2040;50.924;11.604;2022-11-02T12:43:23;14.50;99.90
4052;DHT22;2040;50.924;11.604;2022-11-02T12:54:10;14.70;99.90
4052;DHT22;2040;50.924;11.604;2022-11-02T12:56:46;14.90;99.90
4052;DHT22;2040;50.924;11.604;2022-11-02T12:59:26;15.00;99.90
4052;DHT22;2040;50.924;11.604;2022-11-02T13:02:02;15.10;99.90
4052;DHT22;2040;50.924;11.604;2022-11-02T13:05:11;15.20;99.90
4052;DHT22;2040;50.924;11.604;2022-11-02T13:10:42;15.20;99.90
4052;DHT22;2040;50.924;11.604;2022-11-02T13:13:14;15.30;99.90
4052;DHT22;2040;50.924;11.604;2022-11-02T13:15:43;15.50;99.90
4052;DHT22;2040;50.924;11.604;2022-11-02T13:18:14;15.70;99.90
4052;DHT22;2040;50.924;11.604;2022-11-02T13:20:47;15.80;99.90
4052;DHT22;2040;50.924;11.604;2022-11-02T13:23:21;15.70;99.90
4052;DHT22;2040;50.924;11.604;2022-11-02T13:26:03;15.60;99.90
4052;DHT22;2040;50.924;11.604;2022-11-02T13:28:47;15.60;99.90
4052;DHT22;2040;50.924;11.604;2022-11-02T13:31:27;15.50;99.90
4052;DHT22;2040;50.924;11.604;2022-11-02T13:33:56;15.40;99.90
4052;DHT22;2040;50.924;11.604;2022-11-02T13:36:25;15.50;99.90
4052;DHT22;2040;50.924;11.604;2022-11-02T13:39:14;15.40;99.90
4052;DHT22;2040;50.924;11.604;2022-11-02T13:50:16;15.50;99.90
4052;DHT22;2040;50.924;11.604;2022-11-02T13:53:00;15.40;99.90
4052;DHT22;2040;50.924;11.604;2022-11-02T13:55:43;15.40;99.90
4052;DHT22;2040;50.924;11.604;2022-11-02T13:58:41;15.30;99.90
4052;DHT22;2040;50.924;11.604;2022-11-02T14:01:10;15.20;99.90
4052;DHT22;2040;50.924;11.604;2022-11-02T14:03:49;15.20;99.90
4052;DHT22;2040;50.924;11.604;2022-11-02T14:06:17;15.30;99.90
4052;DHT22;2040;50.924;11.604;2022-11-02T14:08:53;15.20;99.90
4052;DHT22;2040;50.924;11.604;2022-11-02T14:22:02;15.40;99.90
4052;DHT22;2040;50.924;11.604;2022-11-02T14:27:46;15.20;99.90
4052;DHT22;2040;50.924;11.604;2022-11-02T14:29:51;15.00;99.90
4052;DHT22;2040;50.924;11.604;2022-11-02T14:37:41;14.90;99.90
4052;DHT22;2040;50.924;11.604;2022-11-02T14:48:31;14.70;99.90
4052;DHT22;2040;50.924;11.604;2022-11-02T14:51:25;14.60;99.90
4052;DHT22;2040;50.924;11.604;2022-11-02T14:54:14;14.70;99.90
4052;DHT22;2040;50.924;11.604;2022-11-02T14:57:03;14.60;99.90
4052;DHT22;2040;50.924;11.604;2022-11-02T14:59:31;14.50;99.90
4052;DHT22;2040;50.924;11.604;2022-11-02T15:04:48;14.40;99.90
4052;DHT22;2040;50.924;11.604;2022-11-02T15:07:37;14.40;99.90
4052;DHT22;2040;50.924;11.604;2022-11-02T15:18:36;14.00;99.90
4052;DHT22;2040;50.924;11.604;2022-11-02T15:24:07;13.60;99.90
4052;DHT22;2040;50.924;11.604;2022-11-02T15:26:54;13.40;99.90
4052;DHT22;2040;50.924;11.604;2022-11-02T15:29:39;13.10;99.90
4052;DHT22;2040;50.924;11.604;2022-11-02T15:32:12;13.00;99.90
4052;DHT22;2040;50.924;11.604;2022-11-02T15:34:41;12.90;99.90
4052;DHT22;2040;50.924;11.604;2022-11-02T15:37:16;12.60;99.90
4052;DHT22;2040;50.924;11.604;2022-11-02T15:39:53;12.30;99.90
4052;DHT22;2040;50.924;11.604;2022-11-02T15:42:47;11.90;99.90
4052;DHT22;2040;50.924;11.604;2022-11-02T15:45:45;11.70;99.90
4052;DHT22;2040;50.924;11.604;2022-11-02T15:48:42;11.40;99.90
4052;DHT22;2040;50.924;11.604;2022-11-02T15:54:12;11.10;99.90
4052;DHT22;2040;50.924;11.604;2022-11-02T16:01:44;10.80;99.90
4052;DHT22;2040;50.924;11.604;2022-11-02T16:04:18;10.80;99.90
4052;DHT22;2040;50.924;11.604;2022-11-02T16:06:45;10.50;99.90
4052;DHT22;2040;50.924;11.604;2022-11-02T16:09:31;10.40;99.90
4052;DHT22;2040;50.924;11.604;2022-11-02T16:14:36;10.40;99.90
4052;DHT22;2040;50.924;11.604;2022-11-02T16:17:02;10.40;99.90
4052;DHT22;2040;50.924;11.604;2022-11-02T16:19:27;10.40;99.90
4052;DHT22;2040;50.924;11.604;2022-11-02T16:21:53;10.40;99.90
4052;DHT22;2040;50.924;11.604;2022-11-02T16:24:19;10.60;99.90
4052;DHT22;2040;50.924;11.604;2022-11-02T16:26:46;10.60;99.90
4052;DHT22;2040;50.924;11.604;2022-11-02T16:29:38;10.50;99.90
4052;DHT22;2040;50.924;11.604;2022-11-02T16:32:11;10.40;99.90
4052;DHT22;2040;50.924;11.604;2022-11-02T16:34:38;10.40;99.90
4052;DHT22;2040;50.924;11.604;2022-11-02T16:37:05;10.30;99.90
4052;DHT22;2040;50.924;11.604;2022-11-02T16:39:31;10.20;99.90
4052;DHT22;2040;50.924;11.604;2022-11-02T16:42:09;10.10;99.90
4052;DHT22;2040;50.924;11.604;2022-11-02T16:44:38;10.10;99.90
4052;DHT22;2040;50.924;11.604;2022-11-02T16:52:19;9.90;99.90
4052;DHT22;2040;50.924;11.604;2022-11-02T16:54:46;9.90;99.90
4052;DHT22;2040;50.924;11.604;2022-11-02T16:57:13;9.90;99.90
4052;DHT22;2040;50.924;11.604;2022-11-02T16:59:54;9.90;99.90
4052;DHT22;2040;50.924;11.604;2022-11-02T17:04:56;9.80;99.90
4052;DHT22;2040;50.924;11.604;2022-11-02T17:07:30;9.70;99.90
4052;DHT22;2040;50.924;11.604;2022-11-02T17:09:58;9.60;99.90
4052;DHT22;2040;50.924;11.604;2022-11-02T17:12:41;9.50;99.90
4052;DHT22;2040;50.924;11.604;2022-11-02T17:15:27;9.30;99.90
4052;DHT22;2040;50.924;11.604;2022-11-02T17:20:35;9.10;99.90
4052;DHT22;2040;50.924;11.604;2022-11-02T17:23:03;9.20;99.90
4052;DHT22;2040;50.924;11.604;2022-11-02T17:25:31;9.10;99.90
4052;DHT22;2040;50.924;11.604;2022-11-02T17:28:00;9.10;99.90
4052;DHT22;2040;50.924;11.604;2022-11-02T17:32:59;9.10;99.90
4052;DHT22;2040;50.924;11.604;2022-11-02T17:35:26;9.10;99.90
4052;DHT22;2040;50.924;11.604;2022-11-02T17:37:51;9.20;99.90
4052;DHT22;2040;50.924;11.604;2022-11-02T17:40:18;9.10;99.90
4052;DHT22;2040;50.924;11.604;2022-11-02T17:42:44;9.20;99.90
4052;DHT22;2040;50.924;11.604;2022-11-02T17:45:28;9.20;99.90
4052;DHT22;2040;50.924;11.604;2022-11-02T17:47:56;9.20;99.90
4052;DHT22;2040;50.924;11.604;2022-11-02T17:50:23;9.10;99.90
4052;DHT22;2040;50.924;11.604;2022-11-02T17:52:50;9.10;99.90
4052;DHT22;2040;50.924;11.604;2022-11-02T17:55:20;9.00;99.90
4052;DHT22;2040;50.924;11.604;2022-11-02T17:57:46;8.70;99.90
4052;DHT22;2040;50.924;11.604;2022-11-02T18:00:13;8.60;99.90
4052;DHT22;2040;50.924;11.604;2022-11-02T18:02:40;8.40;99.90
4052;DHT22;2040;50.924;11.604;2022-11-02T18:05:30;8.30;99.90
4052;DHT22;2040;50.924;11.604;2022-11-02T18:07:58;8.30;99.90
4052;DHT22;2040;50.924;11.604;2022-11-02T18:10:33;8.40;99.90
4052;DHT22;2040;50.924;11.604;2022-11-02T18:12:59;8.60;99.90
4052;DHT22;2040;50.924;11.604;2022-11-02T18:15:27;8.60;99.90
4052;DHT22;2040;50.924;11.604;2022-11-02T18:17:53;9.00;99.90
4052;DHT22;2040;50.924;11.604;2022-11-02T18:20:21;9.00;99.90
4052;DHT22;2040;50.924;11.604;2022-11-02T18:22:48;8.90;99.90
4052;DHT22;2040;50.924;11.604;2022-11-02T18:25:16;8.80;99.90
4052;DHT22;2040;50.924;11.604;2022-11-02T18:27:43;8.60;99.90
4052;DHT22;2040;50.924;11.604;2022-11-02T18:30:11;8.60;99.90
4052;DHT22;2040;50.924;11.604;2022-11-02T18:32:39;8.70;99.90
4052;DHT22;2040;50.924;11.604;2022-11-02T18:35:08;8.80;99.90
4052;DHT22;2040;50.924;11.604;2022-11-02T18:37:35;8.70;99.90
4052;DHT22;2040;50.924;11.604;2022-11-02T18:40:00;8.60;99.90
4052;DHT22;2040;50.924;11.604;2022-11-02T18:42:26;8.50;99.90
4052;DHT22;2040;50.924;11.604;2022-11-02T18:44:51;8.30;99.90
4052;DHT22;2040;50.924;11.604;2022-11-02T18:47:17;8.20;99.90
4052;DHT22;2040;50.924;11.604;2022-11-02T18:49:43;8.00;99.90